sensor_id;sensor_type;location;lat;lon;timestamp;P1;durP1;ratioP1;P2;durP2;ratioP2
5058;SDS011;2548;52.050;11.036;2023-04-01T00:01:59;3.90;;;1.95;;
5058;SDS011;2548;52.050;11.036;2023-04-01T00:04:27;5.82;;;2.00;;
5058;SDS011;2548;52.050;11.036;2023-04-01T00:06:54;3.88;;;2.25;;
5058;SDS011;2548;52.050;11.036;2023-04-01T00:09:22;5.28;;;2.22;;
5058;SDS011;2548;52.050;11.036;2023-04-01T00:11:51;2.60;;;2.15;;
5058;SDS011;2548;52.050;11.036;2023-04-01T00:14:18;11.13;;;2.80;;
5058;SDS011;2548;52.050;11.036;2023-04-01T00:16:46;2.75;;;2.13;;
5058;SDS011;2548;52.050;11.036;2023-04-01T00:19:13;4.38;;;1.80;;
5058;SDS011;2548;52.050;11.036;2023-04-01T00:21:40;7.57;;;2.20;;
5058;SDS011;2548;52.050;11.036;2023-04-01T00:24:08;6.47;;;2.22;;
5058;SDS011;2548;52.050;11.036;2023-04-01T00:26:36;3.25;;;2.03;;
5058;SDS011;2548;52.050;11.036;2023-04-01T00:29:05;4.30;;;2.28;;
5058;SDS011;2548;52.050;11.036;2023-04-01T00:31:32;4.60;;;2.10;;
5058;SDS011;2548;52.050;11.036;2023-04-01T00:34:00;2.47;;;2.00;;
5058;SDS011;2548;52.050;11.036;2023-04-01T00:36:27;3.10;;;1.80;;
5058;SDS011;2548;52.050;11.036;2023-04-01T00:38:55;6.55;;;2.40;;
5058;SDS011;2548;52.050;11.036;2023-04-01T00:41:24;2.95;;;2.65;;
5058;SDS011;2548;52.050;11.036;2023-04-01T00:43:52;2.53;;;2.28;;
5058;SDS011;2548;52.050;11.036;2023-04-01T00:46:21;9.30;;;1.80;;
5058;SDS011;2548;52.050;11.036;2023-04-01T00:48:49;7.63;;;1.80;;
5058;SDS011;2548;52.050;11.036;2023-04-01T00:51:20;2.75;;;2.45;;
5058;SDS011;2548;52.050;11.036;2023-04-01T00:53:51;3.05;;;2.00;;
5058;SDS011;2548;52.050;11.036;2023-04-01T00:56:21;6.00;;;2.30;;
5058;SDS011;2548;52.050;11.036;2023-04-01T00:58:54;6.57;;;2.20;;
5058;SDS011;2548;52.050;11.036;2023-04-01T01:01:26;8.23;;;1.92;;
5058;SDS011;2548;52.050;11.036;2023-04-01T01:03:56;4.57;;;2.30;;
5058;SDS011;2548;52.050;11.036;2023-04-01T01:06:28;11.25;;;1.83;;
5058;SDS011;2548;52.050;11.036;2023-04-01T01:09:06;5.00;;;2.38;;
5058;SDS011;2548;52.050;11.036;2023-04-01T01:11:45;3.72;;;1.70;;
5058;SDS011;2548;52.050;11.036;2023-04-01T01:14:20;2.65;;;2.10;;
5058;SDS011;2548;52.050;11.036;2023-04-01T01:16:58;7.05;;;1.70;;
5058;SDS011;2548;52.050;11.036;2023-04-01T01:19:33;4.22;;;1.75;;
5058;SDS011;2548;52.050;11.036;2023-04-01T01:22:22;1.65;;;1.50;;
5058;SDS011;2548;52.050;11.036;2023-04-01T01:25:04;7.20;;;2.65;;
5058;SDS011;2548;52.050;11.036;2023-04-01T01:27:44;6.03;;;1.67;;
5058;SDS011;2548;52.050;11.036;2023-04-01T01:30:20;3.75;;;1.50;;
5058;SDS011;2548;52.050;11.036;2023-04-01T01:33:10;5.88;;;1.92;;
5058;SDS011;2548;52.050;11.036;2023-04-01T01:35:47;3.55;;;1.63;;
5058;SDS011;2548;52.050;11.036;2023-04-01T01:38:19;4.22;;;1.83;;
5058;SDS011;2548;52.050;11.036;2023-04-01T01:41:01;2.25;;;1.65;;
5058;SDS011;2548;52.050;11.036;2023-04-01T01:43:31;3.17;;;1.38;;
5058;SDS011;2548;52.050;11.036;2023-04-01T01:46:01;2.10;;;1.75;;
5058;SDS011;2548;52.050;11.036;2023-04-01T01:48:33;5.05;;;2.63;;
5058;SDS011;2548;52.050;11.036;2023-04-01T01:51:05;4.13;;;1.60;;
5058;SDS011;2548;52.050;11.036;2023-04-01T01:53:33;3.38;;;1.88;;
5058;SDS011;2548;52.050;11.036;2023-04-01T01:56:01;2.95;;;1.30;;
5058;SDS011;2548;52.050;11.036;2023-04-01T01:58:35;2.08;;;1.48;;
5058;SDS011;2548;52.050;11.036;2023-04-01T02:01:09;2.42;;;1.95;;
5058;SDS011;2548;52.050;11.036;2023-04-01T02:03:41;1.63;;;1.30;;
5058;SDS011;2548;52.050;11.036;2023-04-01T02:06:13;3.38;;;1.98;;
5058;SDS011;2548;52.050;11.036;2023-04-01T02:08:45;2.72;;;1.60;;
5058;SDS011;2548;52.050;11.036;2023-04-01T02:11:18;10.63;;;2.25;;
5058;SDS011;2548;52.050;11.036;2023-04-01T02:13:52;1.83;;;1.33;;
5058;SDS011;2548;52.050;11.036;2023-04-01T02:16:23;3.50;;;1.90;;
5058;SDS011;2548;52.050;11.036;2023-04-01T02:18:55;2.40;;;2.15;;
5058;SDS011;2548;52.050;11.036;2023-04-01T02:21:27;3.83;;;1.90;;
5058;SDS011;2548;52.050;11.036;2023-04-01T02:23:58;5.43;;;1.95;;
5058;SDS011;2548;52.050;11.036;2023-04-01T02:26:27;3.45;;;2.10;;
5058;SDS011;2548;52.050;11.036;2023-04-01T02:28:55;3.72;;;1.60;;
5058;SDS011;2548;52.050;11.036;2023-04-01T02:31:25;3.03;;;1.77;;
5058;SDS011;2548;52.050;11.036;2023-04-01T02:33:52;3.47;;;2.05;;
5058;SDS011;2548;52.050;11.036;2023-04-01T02:36:21;1.52;;;1.25;;
5058;SDS011;2548;52.050;11.036;2023-04-01T02:38:49;3.15;;;1.70;;
5058;SDS011;2548;52.050;11.036;2023-04-01T02:41:20;2.00;;;1.88;;
5058;SDS011;2548;52.050;11.036;2023-04-01T02:43:47;5.22;;;2.10;;
5058;SDS011;2548;52.050;11.036;2023-04-01T02:46:16;9.38;;;1.55;;
5058;SDS011;2548;52.050;11.036;2023-04-01T02:48:43;3.33;;;1.33;;
5058;SDS011;2548;52.050;11.036;2023-04-01T02:51:11;5.10;;;1.90;;
5058;SDS011;2548;52.050;11.036;2023-04-01T02:53:38;12.18;;;2.50;;
5058;SDS011;2548;52.050;11.036;2023-04-01T02:56:07;6.22;;;2.08;;
5058;SDS011;2548;52.050;11.036;2023-04-01T02:58:35;1.70;;;1.58;;
5058;SDS011;2548;52.050;11.036;2023-04-01T03:01:02;2.50;;;1.88;;
5058;SDS011;2548;52.050;11.036;2023-04-01T03:03:30;2.90;;;1.80;;
5058;SDS011;2548;52.050;11.036;2023-04-01T03:05:57;3.55;;;2.10;;
5058;SDS011;2548;52.050;11.036;2023-04-01T03:08:25;6.85;;;2.78;;
5058;SDS011;2548;52.050;11.036;2023-04-01T03:10:53;2.20;;;1.90;;
5058;SDS011;2548;52.050;11.036;2023-04-01T03:13:22;3.05;;;1.92;;
5058;SDS011;2548;52.050;11.036;2023-04-01T03:15:49;2.65;;;2.35;;
5058;SDS011;2548;52.050;11.036;2023-04-01T03:18:17;3.58;;;1.90;;
5058;SDS011;2548;52.050;11.036;2023-04-01T03:20:44;2.25;;;2.15;;
5058;SDS011;2548;52.050;11.036;2023-04-01T03:23:12;6.47;;;1.75;;
5058;SDS011;2548;52.050;11.036;2023-04-01T03:25:40;3.03;;;2.10;;
5058;SDS011;2548;52.050;11.036;2023-04-01T03:28:07;7.43;;;2.05;;
5058;SDS011;2548;52.050;11.036;2023-04-01T03:30:37;3.65;;;2.00;;
5058;SDS011;2548;52.050;11.036;2023-04-01T03:33:05;5.43;;;1.92;;
5058;SDS011;2548;52.050;11.036;2023-04-01T03:35:32;2.30;;;2.10;;
5058;SDS011;2548;52.050;11.036;2023-04-01T03:38:01;5.90;;;2.20;;
5058;SDS011;2548;52.050;11.036;2023-04-01T03:40:29;4.03;;;2.05;;
5058;SDS011;2548;52.050;11.036;2023-04-01T03:42:58;7.38;;;2.10;;
5058;SDS011;2548;52.050;11.036;2023-04-01T03:45:26;4.85;;;2.47;;
5058;SDS011;2548;52.050;11.036;2023-04-01T03:47:55;4.72;;;2.08;;
5058;SDS011;2548;52.050;11.036;2023-04-01T03:50:22;4.85;;;2.28;;
5058;SDS011;2548;52.050;11.036;2023-04-01T03:52:50;10.70;;;2.30;;
5058;SDS011;2548;52.050;11.036;2023-04-01T03:55:17;2.72;;;1.95;;
5058;SDS011;2548;52.050;11.036;2023-04-01T03:57:47;2.83;;;2.50;;
5058;SDS011;2548;52.050;11.036;2023-04-01T04:00:17;2.35;;;2.20;;
5058;SDS011;2548;52.050;11.036;2023-04-01T04:02:49;5.68;;;1.95;;
5058;SDS011;2548;52.050;11.036;2023-04-01T04:05:23;5.25;;;2.35;;
5058;SDS011;2548;52.050;11.036;2023-04-01T04:07:51;6.13;;;2.15;;
5058;SDS011;2548;52.050;11.036;2023-04-01T04:10:20;5.80;;;2.35;;
5058;SDS011;2548;52.050;11.036;2023-04-01T04:12:48;7.68;;;2.78;;
5058;SDS011;2548;52.050;11.036;2023-04-01T04:15:16;4.53;;;2.03;;
5058;SDS011;2548;52.050;11.036;2023-04-01T04:17:44;3.53;;;1.85;;
5058;SDS011;2548;52.050;11.036;2023-04-01T04:20:14;4.40;;;2.00;;
5058;SDS011;2548;52.050;11.036;2023-04-01T04:22:43;4.82;;;2.72;;
5058;SDS011;2548;52.050;11.036;2023-04-01T04:25:10;7.40;;;2.70;;
5058;SDS011;2548;52.050;11.036;2023-04-01T04:27:38;3.83;;;2.00;;
5058;SDS011;2548;52.050;11.036;2023-04-01T04:30:08;6.13;;;2.13;;
5058;SDS011;2548;52.050;11.036;2023-04-01T04:32:36;2.65;;;2.15;;
5058;SDS011;2548;52.050;11.036;2023-04-01T04:35:04;3.97;;;2.45;;
5058;SDS011;2548;52.050;11.036;2023-04-01T04:37:33;3.10;;;2.80;;
5058;SDS011;2548;52.050;11.036;2023-04-01T04:40:03;5.07;;;1.92;;
5058;SDS011;2548;52.050;11.036;2023-04-01T04:42:31;3.25;;;2.05;;
5058;SDS011;2548;52.050;11.036;2023-04-01T04:45:08;5.57;;;2.85;;
5058;SDS011;2548;52.050;11.036;2023-04-01T04:47:40;5.70;;;2.25;;
5058;SDS011;2548;52.050;11.036;2023-04-01T04:50:08;2.85;;;2.40;;
5058;SDS011;2548;52.050;11.036;2023-04-01T04:52:39;2.58;;;1.90;;
5058;SDS011;2548;52.050;11.036;2023-04-01T04:55:08;2.88;;;1.65;;
5058;SDS011;2548;52.050;11.036;2023-04-01T04:57:35;4.03;;;2.40;;
5058;SDS011;2548;52.050;11.036;2023-04-01T05:00:03;3.30;;;2.05;;
5058;SDS011;2548;52.050;11.036;2023-04-01T05:03:07;2.60;;;2.05;;
5058;SDS011;2548;52.050;11.036;2023-04-01T05:05:35;4.80;;;2.00;;
5058;SDS011;2548;52.050;11.036;2023-04-01T05:08:04;4.40;;;2.45;;
5058;SDS011;2548;52.050;11.036;2023-04-01T05:10:32;1.75;;;1.65;;
5058;SDS011;2548;52.050;11.036;2023-04-01T05:13:00;6.05;;;3.10;;
5058;SDS011;2548;52.050;11.036;2023-04-01T05:15:27;2.00;;;1.90;;
5058;SDS011;2548;52.050;11.036;2023-04-01T05:17:55;7.97;;;2.00;;
5058;SDS011;2548;52.050;11.036;2023-04-01T05:20:23;1.90;;;1.80;;
5058;SDS011;2548;52.050;11.036;2023-04-01T05:22:55;1.95;;;1.73;;
5058;SDS011;2548;52.050;11.036;2023-04-01T05:25:22;4.20;;;2.30;;
5058;SDS011;2548;52.050;11.036;2023-04-01T05:27:51;6.97;;;2.00;;
5058;SDS011;2548;52.050;11.036;2023-04-01T05:30:19;4.20;;;1.65;;
5058;SDS011;2548;52.050;11.036;2023-04-01T05:33:06;1.75;;;1.65;;
5058;SDS011;2548;52.050;11.036;2023-04-01T05:35:34;5.43;;;2.03;;
5058;SDS011;2548;52.050;11.036;2023-04-01T05:38:02;2.63;;;1.80;;
5058;SDS011;2548;52.050;11.036;2023-04-01T05:40:29;7.28;;;2.03;;
5058;SDS011;2548;52.050;11.036;2023-04-01T05:42:59;5.30;;;2.65;;
5058;SDS011;2548;52.050;11.036;2023-04-01T05:45:26;8.05;;;2.10;;
5058;SDS011;2548;52.050;11.036;2023-04-01T05:48:17;13.55;;;7.60;;
5058;SDS011;2548;52.050;11.036;2023-04-01T05:50:45;10.18;;;7.10;;
5058;SDS011;2548;52.050;11.036;2023-04-01T05:53:13;4.03;;;3.60;;
5058;SDS011;2548;52.050;11.036;2023-04-01T05:55:42;4.93;;;3.72;;
5058;SDS011;2548;52.050;11.036;2023-04-01T05:58:11;8.27;;;3.47;;
5058;SDS011;2548;52.050;11.036;2023-04-01T06:00:42;5.05;;;4.50;;
5058;SDS011;2548;52.050;11.036;2023-04-01T06:03:11;5.72;;;3.40;;
5058;SDS011;2548;52.050;11.036;2023-04-01T06:05:39;11.60;;;6.38;;
5058;SDS011;2548;52.050;11.036;2023-04-01T06:08:10;12.63;;;11.32;;
5058;SDS011;2548;52.050;11.036;2023-04-01T06:10:42;8.00;;;7.30;;
5058;SDS011;2548;52.050;11.036;2023-04-01T06:13:22;4.82;;;4.32;;
5058;SDS011;2548;52.050;11.036;2023-04-01T06:15:58;10.45;;;8.85;;
5058;SDS011;2548;52.050;11.036;2023-04-01T06:18:41;14.07;;;12.77;;
5058;SDS011;2548;52.050;11.036;2023-04-01T06:21:23;5.78;;;5.47;;
5058;SDS011;2548;52.050;11.036;2023-04-01T06:24:09;4.50;;;4.30;;
5058;SDS011;2548;52.050;11.036;2023-04-01T06:26:52;4.25;;;3.83;;
5058;SDS011;2548;52.050;11.036;2023-04-01T06:29:30;6.28;;;5.63;;
5058;SDS011;2548;52.050;11.036;2023-04-01T06:32:36;3.38;;;2.70;;
5058;SDS011;2548;52.050;11.036;2023-04-01T06:35:25;3.28;;;3.00;;
5058;SDS011;2548;52.050;11.036;2023-04-01T06:38:06;3.40;;;2.45;;
5058;SDS011;2548;52.050;11.036;2023-04-01T06:40:58;5.63;;;4.80;;
5058;SDS011;2548;52.050;11.036;2023-04-01T06:43:46;3.80;;;3.60;;
5058;SDS011;2548;52.050;11.036;2023-04-01T06:46:43;2.08;;;1.98;;
5058;SDS011;2548;52.050;11.036;2023-04-01T06:49:33;7.68;;;2.47;;
5058;SDS011;2548;52.050;11.036;2023-04-01T06:52:31;7.55;;;2.67;;
5058;SDS011;2548;52.050;11.036;2023-04-01T06:55:34;2.33;;;2.13;;
5058;SDS011;2548;52.050;11.036;2023-04-01T06:58:26;3.40;;;3.13;;
5058;SDS011;2548;52.050;11.036;2023-04-01T07:00:58;2.47;;;1.85;;
5058;SDS011;2548;52.050;11.036;2023-04-01T07:03:32;1.30;;;1.30;;
5058;SDS011;2548;52.050;11.036;2023-04-01T07:06:05;1.70;;;1.65;;
5058;SDS011;2548;52.050;11.036;2023-04-01T07:08:43;5.88;;;2.00;;
5058;SDS011;2548;52.050;11.036;2023-04-01T07:11:15;1.98;;;1.63;;
5058;SDS011;2548;52.050;11.036;2023-04-01T07:14:17;1.25;;;1.15;;
5058;SDS011;2548;52.050;11.036;2023-04-01T07:16:50;4.88;;;1.23;;
5058;SDS011;2548;52.050;11.036;2023-04-01T07:19:24;3.17;;;1.00;;
5058;SDS011;2548;52.050;11.036;2023-04-01T07:22:05;0.90;;;0.90;;
5058;SDS011;2548;52.050;11.036;2023-04-01T07:25:07;2.10;;;1.00;;
5058;SDS011;2548;52.050;11.036;2023-04-01T07:27:40;3.30;;;2.00;;
5058;SDS011;2548;52.050;11.036;2023-04-01T07:30:13;1.70;;;1.60;;
5058;SDS011;2548;52.050;11.036;2023-04-01T07:32:42;2.05;;;1.48;;
5058;SDS011;2548;52.050;11.036;2023-04-01T07:35:19;1.52;;;1.40;;
5058;SDS011;2548;52.050;11.036;2023-04-01T07:37:58;1.20;;;1.20;;
5058;SDS011;2548;52.050;11.036;2023-04-01T07:40:37;2.45;;;1.50;;
5058;SDS011;2548;52.050;11.036;2023-04-01T07:43:20;2.97;;;1.65;;
5058;SDS011;2548;52.050;11.036;2023-04-01T07:46:11;1.55;;;1.45;;
5058;SDS011;2548;52.050;11.036;2023-04-01T07:48:50;1.90;;;0.80;;
5058;SDS011;2548;52.050;11.036;2023-04-01T07:51:26;53.30;;;3.40;;
5058;SDS011;2548;52.050;11.036;2023-04-01T07:54:00;1.45;;;1.08;;
5058;SDS011;2548;52.050;11.036;2023-04-01T07:56:35;2.45;;;0.80;;
5058;SDS011;2548;52.050;11.036;2023-04-01T07:59:12;2.85;;;1.15;;
5058;SDS011;2548;52.050;11.036;2023-04-01T08:02:15;0.75;;;0.75;;
5058;SDS011;2548;52.050;11.036;2023-04-01T08:04:54;1.60;;;0.75;;
5058;SDS011;2548;52.050;11.036;2023-04-01T08:07:30;0.70;;;0.70;;
5058;SDS011;2548;52.050;11.036;2023-04-01T08:10:32;2.65;;;1.25;;
5058;SDS011;2548;52.050;11.036;2023-04-01T08:13:25;0.82;;;0.70;;
5058;SDS011;2548;52.050;11.036;2023-04-01T08:16:20;1.00;;;0.85;;
5058;SDS011;2548;52.050;11.036;2023-04-01T08:18:59;2.90;;;0.98;;
5058;SDS011;2548;52.050;11.036;2023-04-01T08:21:38;3.75;;;0.95;;
5058;SDS011;2548;52.050;11.036;2023-04-01T08:24:13;2.75;;;1.15;;
5058;SDS011;2548;52.050;11.036;2023-04-01T08:26:48;1.02;;;0.80;;
5058;SDS011;2548;52.050;11.036;2023-04-01T08:29:24;0.82;;;0.82;;
5058;SDS011;2548;52.050;11.036;2023-04-01T08:32:00;1.95;;;0.70;;
5058;SDS011;2548;52.050;11.036;2023-04-01T08:34:34;5.00;;;1.00;;
5058;SDS011;2548;52.050;11.036;2023-04-01T08:37:08;1.35;;;0.82;;
5058;SDS011;2548;52.050;11.036;2023-04-01T08:39:44;1.60;;;1.08;;
5058;SDS011;2548;52.050;11.036;2023-04-01T08:42:28;2.90;;;1.42;;
5058;SDS011;2548;52.050;11.036;2023-04-01T08:45:37;1.83;;;0.80;;
5058;SDS011;2548;52.050;11.036;2023-04-01T08:48:39;0.50;;;0.50;;
5058;SDS011;2548;52.050;11.036;2023-04-01T08:54:44;1.35;;;0.85;;
5058;SDS011;2548;52.050;11.036;2023-04-01T08:57:42;2.35;;;0.70;;
5058;SDS011;2548;52.050;11.036;2023-04-01T09:00:41;1.00;;;0.93;;
5058;SDS011;2548;52.050;11.036;2023-04-01T09:03:37;0.80;;;0.80;;
5058;SDS011;2548;52.050;11.036;2023-04-01T09:06:24;2.25;;;0.90;;
5058;SDS011;2548;52.050;11.036;2023-04-01T09:12:12;1.25;;;0.60;;
5058;SDS011;2548;52.050;11.036;2023-04-01T09:15:05;2.97;;;0.52;;
5058;SDS011;2548;52.050;11.036;2023-04-01T09:18:03;4.90;;;0.60;;
5058;SDS011;2548;52.050;11.036;2023-04-01T09:21:17;0.60;;;0.50;;
5058;SDS011;2548;52.050;11.036;2023-04-01T09:24:12;0.60;;;0.60;;
5058;SDS011;2548;52.050;11.036;2023-04-01T09:27:07;2.15;;;0.60;;
5058;SDS011;2548;52.050;11.036;2023-04-01T09:30:05;0.60;;;0.60;;
5058;SDS011;2548;52.050;11.036;2023-04-01T09:36:12;0.88;;;0.88;;
5058;SDS011;2548;52.050;11.036;2023-04-01T09:38:52;0.90;;;0.85;;
5058;SDS011;2548;52.050;11.036;2023-04-01T09:41:27;0.50;;;0.50;;
5058;SDS011;2548;52.050;11.036;2023-04-01T09:44:31;0.60;;;0.60;;
5058;SDS011;2548;52.050;11.036;2023-04-01T09:47:23;0.85;;;0.50;;
5058;SDS011;2548;52.050;11.036;2023-04-01T09:50:16;5.13;;;0.65;;
5058;SDS011;2548;52.050;11.036;2023-04-01T09:53:02;0.85;;;0.85;;
5058;SDS011;2548;52.050;11.036;2023-04-01T10:02:40;1.98;;;0.50;;
5058;SDS011;2548;52.050;11.036;2023-04-01T10:18:32;0.80;;;0.70;;
5058;SDS011;2548;52.050;11.036;2023-04-01T10:21:30;1.05;;;0.60;;
5058;SDS011;2548;52.050;11.036;2023-04-01T10:31:11;0.55;;;0.55;;
5058;SDS011;2548;52.050;11.036;2023-04-01T10:37:10;1.50;;;0.60;;
5058;SDS011;2548;52.050;11.036;2023-04-01T10:40:03;0.70;;;0.60;;
5058;SDS011;2548;52.050;11.036;2023-04-01T10:50:00;4.45;;;0.80;;
5058;SDS011;2548;52.050;11.036;2023-04-01T10:56:32;1.20;;;0.60;;
5058;SDS011;2548;52.050;11.036;2023-04-01T10:59:32;1.05;;;0.60;;
5058;SDS011;2548;52.050;11.036;2023-04-01T11:03:02;2.33;;;0.90;;
5058;SDS011;2548;52.050;11.036;2023-04-01T11:06:21;1.35;;;0.70;;
5058;SDS011;2548;52.050;11.036;2023-04-01T11:09:27;1.23;;;0.88;;
5058;SDS011;2548;52.050;11.036;2023-04-01T11:12:22;1.30;;;0.63;;
5058;SDS011;2548;52.050;11.036;2023-04-01T11:18:50;0.50;;;0.50;;
5058;SDS011;2548;52.050;11.036;2023-04-01T11:21:50;1.40;;;1.30;;
5058;SDS011;2548;52.050;11.036;2023-04-01T11:24:59;0.98;;;0.70;;
5058;SDS011;2548;52.050;11.036;2023-04-01T11:28:25;1.00;;;0.50;;
5058;SDS011;2548;52.050;11.036;2023-04-01T11:34:20;0.60;;;0.60;;
5058;SDS011;2548;52.050;11.036;2023-04-01T11:37:05;0.70;;;0.70;;
5058;SDS011;2548;52.050;11.036;2023-04-01T11:40:07;0.95;;;0.70;;
5058;SDS011;2548;52.050;11.036;2023-04-01T11:43:14;24.38;;;11.63;;
5058;SDS011;2548;52.050;11.036;2023-04-01T11:46:10;9.85;;;7.22;;
5058;SDS011;2548;52.050;11.036;2023-04-01T11:48:49;6.22;;;5.03;;
5058;SDS011;2548;52.050;11.036;2023-04-01T11:51:40;1.20;;;1.10;;
5058;SDS011;2548;52.050;11.036;2023-04-01T11:54:31;0.80;;;0.75;;
5058;SDS011;2548;52.050;11.036;2023-04-01T11:57:31;2.47;;;1.77;;
5058;SDS011;2548;52.050;11.036;2023-04-01T12:00:25;3.22;;;0.73;;
5058;SDS011;2548;52.050;11.036;2023-04-01T12:03:18;9.23;;;2.90;;
5058;SDS011;2548;52.050;11.036;2023-04-01T12:06:02;2.47;;;1.75;;
5058;SDS011;2548;52.050;11.036;2023-04-01T12:08:40;16.13;;;9.23;;
5058;SDS011;2548;52.050;11.036;2023-04-01T12:11:21;4.38;;;3.40;;
5058;SDS011;2548;52.050;11.036;2023-04-01T12:13:59;4.85;;;4.35;;
5058;SDS011;2548;52.050;11.036;2023-04-01T12:19:26;3.50;;;3.25;;
5058;SDS011;2548;52.050;11.036;2023-04-01T12:25:29;5.78;;;2.78;;
5058;SDS011;2548;52.050;11.036;2023-04-01T12:28:24;2.30;;;2.20;;
5058;SDS011;2548;52.050;11.036;2023-04-01T12:31:02;3.95;;;2.00;;
5058;SDS011;2548;52.050;11.036;2023-04-01T12:36:52;3.72;;;2.00;;
5058;SDS011;2548;52.050;11.036;2023-04-01T12:42:58;2.88;;;2.50;;
5058;SDS011;2548;52.050;11.036;2023-04-01T12:45:35;5.18;;;1.20;;
5058;SDS011;2548;52.050;11.036;2023-04-01T12:51:39;30.15;;;3.75;;
5058;SDS011;2548;52.050;11.036;2023-04-01T12:57:48;13.55;;;1.58;;
5058;SDS011;2548;52.050;11.036;2023-04-01T13:03:43;2.58;;;1.00;;
5058;SDS011;2548;52.050;11.036;2023-04-01T13:09:38;2.63;;;0.85;;
5058;SDS011;2548;52.050;11.036;2023-04-01T13:12:25;0.80;;;0.50;;
5058;SDS011;2548;52.050;11.036;2023-04-01T13:18:11;0.85;;;0.85;;
5058;SDS011;2548;52.050;11.036;2023-04-01T13:20:59;1.23;;;0.80;;
5058;SDS011;2548;52.050;11.036;2023-04-01T13:23:34;1.08;;;0.80;;
5058;SDS011;2548;52.050;11.036;2023-04-01T13:26:13;17.95;;;1.15;;
5058;SDS011;2548;52.050;11.036;2023-04-01T13:28:56;0.95;;;0.80;;
5058;SDS011;2548;52.050;11.036;2023-04-01T13:31:38;0.98;;;0.70;;
5058;SDS011;2548;52.050;11.036;2023-04-01T13:34:34;3.35;;;0.80;;
5058;SDS011;2548;52.050;11.036;2023-04-01T13:37:16;1.40;;;1.30;;
5058;SDS011;2548;52.050;11.036;2023-04-01T13:40:13;3.08;;;1.10;;
5058;SDS011;2548;52.050;11.036;2023-04-01T13:42:59;1.45;;;1.35;;
5058;SDS011;2548;52.050;11.036;2023-04-01T13:45:34;1.35;;;1.05;;
5058;SDS011;2548;52.050;11.036;2023-04-01T13:48:30;1.30;;;1.05;;
5058;SDS011;2548;52.050;11.036;2023-04-01T13:54:18;1.40;;;1.02;;
5058;SDS011;2548;52.050;11.036;2023-04-01T13:57:35;1.33;;;1.10;;
5058;SDS011;2548;52.050;11.036;2023-04-01T14:03:30;1.33;;;1.00;;
5058;SDS011;2548;52.050;11.036;2023-04-01T14:06:06;0.80;;;0.70;;
5058;SDS011;2548;52.050;11.036;2023-04-01T14:08:47;3.30;;;1.00;;
5058;SDS011;2548;52.050;11.036;2023-04-01T14:11:30;1.90;;;1.15;;
5058;SDS011;2548;52.050;11.036;2023-04-01T14:14:05;3.22;;;0.80;;
5058;SDS011;2548;52.050;11.036;2023-04-01T14:20:10;3.35;;;1.80;;
5058;SDS011;2548;52.050;11.036;2023-04-01T14:22:59;6.90;;;1.00;;
5058;SDS011;2548;52.050;11.036;2023-04-01T14:25:54;1.70;;;1.00;;
5058;SDS011;2548;52.050;11.036;2023-04-01T14:28:38;2.20;;;1.30;;
5058;SDS011;2548;52.050;11.036;2023-04-01T14:31:17;3.47;;;1.20;;
5058;SDS011;2548;52.050;11.036;2023-04-01T14:33:55;3.42;;;1.30;;
5058;SDS011;2548;52.050;11.036;2023-04-01T14:39:42;3.78;;;1.70;;
5058;SDS011;2548;52.050;11.036;2023-04-01T14:42:21;1.10;;;1.02;;
5058;SDS011;2548;52.050;11.036;2023-04-01T14:45:17;2.65;;;1.15;;
5058;SDS011;2548;52.050;11.036;2023-04-01T14:47:56;2.85;;;1.63;;
5058;SDS011;2548;52.050;11.036;2023-04-01T14:50:29;5.15;;;1.23;;
5058;SDS011;2548;52.050;11.036;2023-04-01T14:53:11;9.82;;;3.85;;
5058;SDS011;2548;52.050;11.036;2023-04-01T14:55:47;3.22;;;2.53;;
5058;SDS011;2548;52.050;11.036;2023-04-01T14:58:17;3.47;;;1.80;;
5058;SDS011;2548;52.050;11.036;2023-04-01T15:00:50;2.75;;;2.10;;
5058;SDS011;2548;52.050;11.036;2023-04-01T15:03:36;1.60;;;1.50;;
5058;SDS011;2548;52.050;11.036;2023-04-01T15:09:22;3.28;;;1.50;;
5058;SDS011;2548;52.050;11.036;2023-04-01T15:12:04;2.20;;;2.10;;
5058;SDS011;2548;52.050;11.036;2023-04-01T15:17:47;6.43;;;3.70;;
5058;SDS011;2548;52.050;11.036;2023-04-01T15:23:27;4.35;;;3.10;;
5058;SDS011;2548;52.050;11.036;2023-04-01T15:26:18;4.82;;;2.85;;
5058;SDS011;2548;52.050;11.036;2023-04-01T15:29:18;5.18;;;2.30;;
5058;SDS011;2548;52.050;11.036;2023-04-01T15:32:06;2.63;;;1.50;;
5058;SDS011;2548;52.050;11.036;2023-04-01T15:34:44;2.65;;;2.55;;
5058;SDS011;2548;52.050;11.036;2023-04-01T15:37:27;3.60;;;3.30;;
5058;SDS011;2548;52.050;11.036;2023-04-01T15:40:08;2.75;;;2.65;;
5058;SDS011;2548;52.050;11.036;2023-04-01T15:42:53;5.25;;;2.58;;
5058;SDS011;2548;52.050;11.036;2023-04-01T15:45:36;2.53;;;2.42;;
5058;SDS011;2548;52.050;11.036;2023-04-01T15:48:25;2.42;;;2.33;;
5058;SDS011;2548;52.050;11.036;2023-04-01T15:51:06;2.45;;;2.35;;
5058;SDS011;2548;52.050;11.036;2023-04-01T15:54:02;3.35;;;3.20;;
5058;SDS011;2548;52.050;11.036;2023-04-01T15:56:58;2.85;;;2.75;;
5058;SDS011;2548;52.050;11.036;2023-04-01T15:59:47;2.72;;;2.63;;
5058;SDS011;2548;52.050;11.036;2023-04-01T16:02:28;2.60;;;2.40;;
5058;SDS011;2548;52.050;11.036;2023-04-01T16:05:00;4.13;;;2.95;;
5058;SDS011;2548;52.050;11.036;2023-04-01T16:10:38;2.83;;;2.63;;
5058;SDS011;2548;52.050;11.036;2023-04-01T16:13:21;3.55;;;3.05;;
5058;SDS011;2548;52.050;11.036;2023-04-01T16:15:57;2.95;;;2.75;;
5058;SDS011;2548;52.050;11.036;2023-04-01T16:18:38;2.50;;;2.40;;
5058;SDS011;2548;52.050;11.036;2023-04-01T16:21:22;2.40;;;2.30;;
5058;SDS011;2548;52.050;11.036;2023-04-01T16:24:02;3.15;;;3.03;;
5058;SDS011;2548;52.050;11.036;2023-04-01T16:26:37;2.47;;;2.38;;
5058;SDS011;2548;52.050;11.036;2023-04-01T16:29:09;2.35;;;2.25;;
5058;SDS011;2548;52.050;11.036;2023-04-01T16:31:43;2.33;;;2.22;;
5058;SDS011;2548;52.050;11.036;2023-04-01T16:34:14;2.33;;;2.22;;
5058;SDS011;2548;52.050;11.036;2023-04-01T16:36:47;2.53;;;2.42;;
5058;SDS011;2548;52.050;11.036;2023-04-01T16:39:20;6.68;;;2.80;;
5058;SDS011;2548;52.050;11.036;2023-04-01T16:41:57;2.38;;;2.28;;
5058;SDS011;2548;52.050;11.036;2023-04-01T16:44:46;2.90;;;2.70;;
5058;SDS011;2548;52.050;11.036;2023-04-01T16:47:19;2.20;;;2.10;;
5058;SDS011;2548;52.050;11.036;2023-04-01T16:49:54;4.93;;;3.30;;
5058;SDS011;2548;52.050;11.036;2023-04-01T16:52:32;2.67;;;2.58;;
5058;SDS011;2548;52.050;11.036;2023-04-01T16:55:12;3.25;;;2.95;;
5058;SDS011;2548;52.050;11.036;2023-04-01T16:57:45;3.47;;;3.00;;
5058;SDS011;2548;52.050;11.036;2023-04-01T17:00:21;2.55;;;2.45;;
5058;SDS011;2548;52.050;11.036;2023-04-01T17:02:57;3.85;;;3.58;;
5058;SDS011;2548;52.050;11.036;2023-04-01T17:05:38;3.58;;;3.38;;
5058;SDS011;2548;52.050;11.036;2023-04-01T17:08:14;2.38;;;2.28;;
5058;SDS011;2548;52.050;11.036;2023-04-01T17:10:51;2.88;;;2.78;;
5058;SDS011;2548;52.050;11.036;2023-04-01T17:16:19;3.20;;;3.08;;
5058;SDS011;2548;52.050;11.036;2023-04-01T17:18:58;2.83;;;2.72;;
5058;SDS011;2548;52.050;11.036;2023-04-01T17:21:43;3.47;;;3.08;;
5058;SDS011;2548;52.050;11.036;2023-04-01T17:24:22;2.72;;;2.53;;
5058;SDS011;2548;52.050;11.036;2023-04-01T17:26:58;2.97;;;2.88;;
5058;SDS011;2548;52.050;11.036;2023-04-01T17:29:40;5.18;;;3.10;;
5058;SDS011;2548;52.050;11.036;2023-04-01T17:32:26;2.53;;;2.33;;
5058;SDS011;2548;52.050;11.036;2023-04-01T17:35:08;3.13;;;2.92;;
5058;SDS011;2548;52.050;11.036;2023-04-01T17:37:42;2.60;;;2.45;;
5058;SDS011;2548;52.050;11.036;2023-04-01T17:40:27;2.85;;;2.65;;
5058;SDS011;2548;52.050;11.036;2023-04-01T17:43:03;3.00;;;2.90;;
5058;SDS011;2548;52.050;11.036;2023-04-01T17:45:41;2.47;;;2.38;;
5058;SDS011;2548;52.050;11.036;2023-04-01T17:48:19;2.30;;;2.20;;
5058;SDS011;2548;52.050;11.036;2023-04-01T17:51:06;2.20;;;2.10;;
5058;SDS011;2548;52.050;11.036;2023-04-01T17:53:43;4.75;;;2.83;;
5058;SDS011;2548;52.050;11.036;2023-04-01T17:56:20;2.90;;;2.80;;
5058;SDS011;2548;52.050;11.036;2023-04-01T17:58:59;5.57;;;2.40;;
5058;SDS011;2548;52.050;11.036;2023-04-01T18:01:36;2.50;;;2.40;;
5058;SDS011;2548;52.050;11.036;2023-04-01T18:04:21;2.47;;;2.38;;
5058;SDS011;2548;52.050;11.036;2023-04-01T18:10:13;3.13;;;2.92;;